sensor_id;sensor_type;location;lat;lon;timestamp;P1;durP1;ratioP1;P2;durP2;ratioP2
76795;SDS011;65745;50.278;18.192;2023-05-27T00:00:20;9.30;;;5.30;;
76795;SDS011;65745;50.278;18.192;2023-05-27T00:03:13;8.10;;;5.30;;
76795;SDS011;65745;50.278;18.192;2023-05-27T00:05:45;11.60;;;5.60;;
76795;SDS011;65745;50.278;18.192;2023-05-27T00:08:18;11.30;;;6.20;;
76795;SDS011;65745;50.278;18.192;2023-05-27T00:10:50;11.50;;;5.60;;
76795;SDS011;65745;50.278;18.192;2023-05-27T00:13:22;10.20;;;5.70;;
76795;SDS011;65745;50.278;18.192;2023-05-27T00:15:55;12.10;;;6.10;;
76795;SDS011;65745;50.278;18.192;2023-05-27T00:18:27;13.90;;;6.40;;
76795;SDS011;65745;50.278;18.192;2023-05-27T00:21:02;8.20;;;4.90;;
76795;SDS011;65745;50.278;18.192;2023-05-27T00:23:34;8.90;;;5.80;;
76795;SDS011;65745;50.278;18.192;2023-05-27T00:26:06;11.70;;;5.90;;
76795;SDS011;65745;50.278;18.192;2023-05-27T00:28:39;10.50;;;6.10;;
76795;SDS011;65745;50.278;18.192;2023-05-27T00:31:11;10.10;;;5.60;;
76795;SDS011;65745;50.278;18.192;2023-05-27T00:33:44;11.80;;;5.80;;
76795;SDS011;65745;50.278;18.192;2023-05-27T00:36:16;10.30;;;5.40;;
76795;SDS011;65745;50.278;18.192;2023-05-27T00:38:48;9.70;;;5.20;;
76795;SDS011;65745;50.278;18.192;2023-05-27T00:41:21;12.30;;;5.50;;
76795;SDS011;65745;50.278;18.192;2023-05-27T00:43:55;14.60;;;6.20;;
76795;SDS011;65745;50.278;18.192;2023-05-27T00:46:27;10.70;;;5.20;;
76795;SDS011;65745;50.278;18.192;2023-05-27T00:49:00;14.10;;;6.20;;
76795;SDS011;65745;50.278;18.192;2023-05-27T00:51:32;12.00;;;5.60;;
76795;SDS011;65745;50.278;18.192;2023-05-27T00:54:05;11.90;;;5.50;;
76795;SDS011;65745;50.278;18.192;2023-05-27T00:56:39;12.00;;;6.20;;
76795;SDS011;65745;50.278;18.192;2023-05-27T00:59:12;11.80;;;6.00;;
76795;SDS011;65745;50.278;18.192;2023-05-27T01:01:45;11.70;;;6.60;;
76795;SDS011;65745;50.278;18.192;2023-05-27T01:04:18;10.00;;;5.60;;
76795;SDS011;65745;50.278;18.192;2023-05-27T01:06:55;13.40;;;6.00;;
76795;SDS011;65745;50.278;18.192;2023-05-27T01:09:35;10.40;;;5.90;;
76795;SDS011;65745;50.278;18.192;2023-05-27T01:12:16;7.70;;;5.20;;
76795;SDS011;65745;50.278;18.192;2023-05-27T01:14:56;9.20;;;5.40;;
76795;SDS011;65745;50.278;18.192;2023-05-27T01:17:31;10.90;;;5.80;;
76795;SDS011;65745;50.278;18.192;2023-05-27T01:20:07;12.50;;;6.40;;
76795;SDS011;65745;50.278;18.192;2023-05-27T01:22:43;10.70;;;5.60;;
76795;SDS011;65745;50.278;18.192;2023-05-27T01:25:17;11.70;;;5.60;;
76795;SDS011;65745;50.278;18.192;2023-05-27T01:27:50;11.30;;;6.30;;
76795;SDS011;65745;50.278;18.192;2023-05-27T01:30:25;10.20;;;6.50;;
76795;SDS011;65745;50.278;18.192;2023-05-27T01:32:59;11.90;;;6.10;;
76795;SDS011;65745;50.278;18.192;2023-05-27T01:35:40;11.60;;;5.80;;
76795;SDS011;65745;50.278;18.192;2023-05-27T01:38:16;10.50;;;6.80;;
76795;SDS011;65745;50.278;18.192;2023-05-27T01:40:50;9.70;;;6.50;;
76795;SDS011;65745;50.278;18.192;2023-05-27T01:43:23;11.60;;;5.90;;
76795;SDS011;65745;50.278;18.192;2023-05-27T01:45:56;9.90;;;6.00;;
76795;SDS011;65745;50.278;18.192;2023-05-27T01:48:29;12.60;;;6.30;;
76795;SDS011;65745;50.278;18.192;2023-05-27T01:51:03;15.00;;;7.70;;
76795;SDS011;65745;50.278;18.192;2023-05-27T01:53:35;13.80;;;6.70;;
76795;SDS011;65745;50.278;18.192;2023-05-27T01:56:07;11.50;;;6.10;;
76795;SDS011;65745;50.278;18.192;2023-05-27T01:58:39;10.80;;;6.00;;
76795;SDS011;65745;50.278;18.192;2023-05-27T02:01:12;12.30;;;6.20;;
76795;SDS011;65745;50.278;18.192;2023-05-27T02:03:44;13.40;;;7.10;;
76795;SDS011;65745;50.278;18.192;2023-05-27T02:06:16;9.70;;;5.80;;
76795;SDS011;65745;50.278;18.192;2023-05-27T02:08:49;10.50;;;6.30;;
76795;SDS011;65745;50.278;18.192;2023-05-27T02:11:21;12.20;;;6.10;;
76795;SDS011;65745;50.278;18.192;2023-05-27T02:13:54;9.60;;;5.80;;
76795;SDS011;65745;50.278;18.192;2023-05-27T02:16:26;13.90;;;6.70;;
76795;SDS011;65745;50.278;18.192;2023-05-27T02:19:00;9.10;;;5.50;;
76795;SDS011;65745;50.278;18.192;2023-05-27T02:21:33;11.30;;;6.10;;
76795;SDS011;65745;50.278;18.192;2023-05-27T02:24:07;10.00;;;6.40;;
76795;SDS011;65745;50.278;18.192;2023-05-27T02:26:39;11.50;;;6.40;;
76795;SDS011;65745;50.278;18.192;2023-05-27T02:29:11;9.80;;;5.80;;
76795;SDS011;65745;50.278;18.192;2023-05-27T02:31:43;8.70;;;5.60;;
76795;SDS011;65745;50.278;18.192;2023-05-27T02:34:15;12.60;;;6.10;;
76795;SDS011;65745;50.278;18.192;2023-05-27T02:36:47;11.70;;;6.40;;
76795;SDS011;65745;50.278;18.192;2023-05-27T02:39:20;10.50;;;5.40;;
76795;SDS011;65745;50.278;18.192;2023-05-27T02:41:53;12.10;;;6.10;;
76795;SDS011;65745;50.278;18.192;2023-05-27T02:44:25;13.10;;;6.60;;
76795;SDS011;65745;50.278;18.192;2023-05-27T02:46:57;13.50;;;6.10;;
76795;SDS011;65745;50.278;18.192;2023-05-27T02:49:29;11.60;;;5.80;;
76795;SDS011;65745;50.278;18.192;2023-05-27T02:52:02;12.60;;;5.80;;
76795;SDS011;65745;50.278;18.192;2023-05-27T02:54:35;11.40;;;6.20;;
76795;SDS011;65745;50.278;18.192;2023-05-27T02:57:08;14.90;;;6.50;;
76795;SDS011;65745;50.278;18.192;2023-05-27T02:59:40;12.30;;;5.50;;
76795;SDS011;65745;50.278;18.192;2023-05-27T03:02:12;13.00;;;7.20;;
76795;SDS011;65745;50.278;18.192;2023-05-27T03:04:44;13.60;;;7.00;;
76795;SDS011;65745;50.278;18.192;2023-05-27T03:07:17;11.40;;;5.90;;
76795;SDS011;65745;50.278;18.192;2023-05-27T03:09:50;13.10;;;6.70;;
76795;SDS011;65745;50.278;18.192;2023-05-27T03:12:22;11.10;;;6.60;;
76795;SDS011;65745;50.278;18.192;2023-05-27T03:14:55;15.70;;;7.00;;
76795;SDS011;65745;50.278;18.192;2023-05-27T03:17:27;14.80;;;7.00;;
76795;SDS011;65745;50.278;18.192;2023-05-27T03:19:59;10.20;;;6.10;;
76795;SDS011;65745;50.278;18.192;2023-05-27T03:22:33;12.80;;;5.50;;
76795;SDS011;65745;50.278;18.192;2023-05-27T03:25:07;10.20;;;6.20;;
76795;SDS011;65745;50.278;18.192;2023-05-27T03:27:40;11.30;;;5.50;;
76795;SDS011;65745;50.278;18.192;2023-05-27T03:30:15;13.20;;;5.90;;
76795;SDS011;65745;50.278;18.192;2023-05-27T03:32:49;12.50;;;6.40;;
76795;SDS011;65745;50.278;18.192;2023-05-27T03:35:27;18.10;;;6.80;;
76795;SDS011;65745;50.278;18.192;2023-05-27T03:37:59;13.40;;;6.80;;
76795;SDS011;65745;50.278;18.192;2023-05-27T03:40:31;13.30;;;5.90;;
76795;SDS011;65745;50.278;18.192;2023-05-27T03:43:05;13.30;;;5.80;;
76795;SDS011;65745;50.278;18.192;2023-05-27T03:45:37;9.60;;;6.10;;
76795;SDS011;65745;50.278;18.192;2023-05-27T03:48:09;15.10;;;6.00;;
76795;SDS011;65745;50.278;18.192;2023-05-27T03:50:42;12.40;;;6.00;;
76795;SDS011;65745;50.278;18.192;2023-05-27T03:53:15;12.30;;;5.90;;
76795;SDS011;65745;50.278;18.192;2023-05-27T03:55:47;17.90;;;6.70;;
76795;SDS011;65745;50.278;18.192;2023-05-27T03:58:19;11.90;;;5.50;;
76795;SDS011;65745;50.278;18.192;2023-05-27T04:00:52;11.80;;;5.80;;
76795;SDS011;65745;50.278;18.192;2023-05-27T04:03:24;12.10;;;5.80;;
76795;SDS011;65745;50.278;18.192;2023-05-27T04:05:56;14.50;;;6.60;;
76795;SDS011;65745;50.278;18.192;2023-05-27T04:08:29;11.80;;;5.50;;
76795;SDS011;65745;50.278;18.192;2023-05-27T04:11:01;11.90;;;5.60;;
76795;SDS011;65745;50.278;18.192;2023-05-27T04:13:33;11.80;;;6.30;;
76795;SDS011;65745;50.278;18.192;2023-05-27T04:16:08;12.00;;;6.40;;
76795;SDS011;65745;50.278;18.192;2023-05-27T04:18:41;13.20;;;6.30;;
76795;SDS011;65745;50.278;18.192;2023-05-27T04:23:49;12.60;;;7.30;;
76795;SDS011;65745;50.278;18.192;2023-05-27T04:26:21;11.60;;;5.10;;
76795;SDS011;65745;50.278;18.192;2023-05-27T04:28:55;10.90;;;5.40;;
76795;SDS011;65745;50.278;18.192;2023-05-27T04:31:29;13.40;;;6.50;;
76795;SDS011;65745;50.278;18.192;2023-05-27T04:34:05;10.20;;;5.60;;
76795;SDS011;65745;50.278;18.192;2023-05-27T04:36:38;11.10;;;6.20;;
76795;SDS011;65745;50.278;18.192;2023-05-27T04:39:14;11.70;;;5.50;;
76795;SDS011;65745;50.278;18.192;2023-05-27T04:41:48;14.20;;;6.30;;
76795;SDS011;65745;50.278;18.192;2023-05-27T04:44:20;10.80;;;5.90;;
76795;SDS011;65745;50.278;18.192;2023-05-27T04:46:52;12.40;;;5.60;;
76795;SDS011;65745;50.278;18.192;2023-05-27T04:49:25;8.50;;;4.90;;
76795;SDS011;65745;50.278;18.192;2023-05-27T04:51:57;10.50;;;6.00;;
76795;SDS011;65745;50.278;18.192;2023-05-27T04:54:30;12.10;;;5.60;;
76795;SDS011;65745;50.278;18.192;2023-05-27T04:57:05;10.90;;;5.20;;
76795;SDS011;65745;50.278;18.192;2023-05-27T04:59:38;11.60;;;5.70;;
76795;SDS011;65745;50.278;18.192;2023-05-27T05:02:24;10.90;;;5.20;;
76795;SDS011;65745;50.278;18.192;2023-05-27T05:05:11;11.90;;;5.70;;
76795;SDS011;65745;50.278;18.192;2023-05-27T05:07:43;10.50;;;5.60;;
76795;SDS011;65745;50.278;18.192;2023-05-27T05:10:15;11.80;;;5.60;;
76795;SDS011;65745;50.278;18.192;2023-05-27T05:12:49;11.70;;;6.10;;
76795;SDS011;65745;50.278;18.192;2023-05-27T05:15:23;8.70;;;5.40;;
76795;SDS011;65745;50.278;18.192;2023-05-27T05:17:56;15.90;;;6.20;;
76795;SDS011;65745;50.278;18.192;2023-05-27T05:20:30;12.00;;;6.10;;
76795;SDS011;65745;50.278;18.192;2023-05-27T05:23:02;12.00;;;5.70;;
76795;SDS011;65745;50.278;18.192;2023-05-27T05:25:36;12.50;;;5.60;;
76795;SDS011;65745;50.278;18.192;2023-05-27T05:28:09;12.30;;;5.60;;
76795;SDS011;65745;50.278;18.192;2023-05-27T05:30:41;12.00;;;5.80;;
76795;SDS011;65745;50.278;18.192;2023-05-27T05:33:15;13.20;;;6.20;;
76795;SDS011;65745;50.278;18.192;2023-05-27T05:35:50;9.50;;;5.60;;
76795;SDS011;65745;50.278;18.192;2023-05-27T05:38:31;9.50;;;5.60;;
76795;SDS011;65745;50.278;18.192;2023-05-27T05:41:03;11.00;;;4.70;;
76795;SDS011;65745;50.278;18.192;2023-05-27T05:43:36;10.80;;;5.00;;
76795;SDS011;65745;50.278;18.192;2023-05-27T05:46:09;13.70;;;5.60;;
76795;SDS011;65745;50.278;18.192;2023-05-27T05:48:42;17.90;;;6.00;;
76795;SDS011;65745;50.278;18.192;2023-05-27T05:53:54;14.60;;;5.40;;
76795;SDS011;65745;50.278;18.192;2023-05-27T05:56:27;16.30;;;5.70;;
76795;SDS011;65745;50.278;18.192;2023-05-27T05:59:00;10.70;;;5.70;;
76795;SDS011;65745;50.278;18.192;2023-05-27T06:01:34;16.00;;;5.80;;
76795;SDS011;65745;50.278;18.192;2023-05-27T06:04:07;11.80;;;6.30;;
76795;SDS011;65745;50.278;18.192;2023-05-27T06:06:41;12.80;;;5.50;;
76795;SDS011;65745;50.278;18.192;2023-05-27T06:09:26;13.70;;;5.60;;
76795;SDS011;65745;50.278;18.192;2023-05-27T06:12:01;11.60;;;5.10;;
76795;SDS011;65745;50.278;18.192;2023-05-27T06:14:39;10.90;;;5.10;;
76795;SDS011;65745;50.278;18.192;2023-05-27T06:17:12;11.80;;;5.60;;
76795;SDS011;65745;50.278;18.192;2023-05-27T06:19:44;11.20;;;5.70;;
76795;SDS011;65745;50.278;18.192;2023-05-27T06:22:17;11.50;;;5.80;;
76795;SDS011;65745;50.278;18.192;2023-05-27T06:25:21;11.20;;;5.20;;
76795;SDS011;65745;50.278;18.192;2023-05-27T06:27:57;9.20;;;4.50;;
76795;SDS011;65745;50.278;18.192;2023-05-27T06:30:29;13.30;;;6.10;;
76795;SDS011;65745;50.278;18.192;2023-05-27T06:33:02;12.20;;;5.60;;
76795;SDS011;65745;50.278;18.192;2023-05-27T06:35:35;11.40;;;5.00;;
76795;SDS011;65745;50.278;18.192;2023-05-27T06:38:07;12.60;;;5.90;;
76795;SDS011;65745;50.278;18.192;2023-05-27T06:40:39;13.70;;;5.80;;
76795;SDS011;65745;50.278;18.192;2023-05-27T06:43:11;10.60;;;5.00;;
76795;SDS011;65745;50.278;18.192;2023-05-27T06:46:06;15.00;;;5.10;;
76795;SDS011;65745;50.278;18.192;2023-05-27T06:48:59;10.70;;;5.60;;
76795;SDS011;65745;50.278;18.192;2023-05-27T06:51:31;9.70;;;4.90;;
76795;SDS011;65745;50.278;18.192;2023-05-27T06:54:04;12.80;;;5.80;;
76795;SDS011;65745;50.278;18.192;2023-05-27T06:56:42;11.90;;;4.80;;
76795;SDS011;65745;50.278;18.192;2023-05-27T06:59:33;12.50;;;5.20;;
76795;SDS011;65745;50.278;18.192;2023-05-27T07:02:06;11.80;;;5.20;;
76795;SDS011;65745;50.278;18.192;2023-05-27T07:04:38;9.80;;;4.40;;
76795;SDS011;65745;50.278;18.192;2023-05-27T07:07:11;12.70;;;4.30;;
76795;SDS011;65745;50.278;18.192;2023-05-27T07:09:44;9.60;;;4.70;;
76795;SDS011;65745;50.278;18.192;2023-05-27T07:12:16;10.20;;;5.30;;
76795;SDS011;65745;50.278;18.192;2023-05-27T07:14:52;8.10;;;3.90;;
76795;SDS011;65745;50.278;18.192;2023-05-27T07:17:26;13.20;;;6.00;;
76795;SDS011;65745;50.278;18.192;2023-05-27T07:19:58;9.80;;;4.20;;
76795;SDS011;65745;50.278;18.192;2023-05-27T07:22:31;12.60;;;5.50;;
76795;SDS011;65745;50.278;18.192;2023-05-27T07:25:04;15.30;;;5.20;;
76795;SDS011;65745;50.278;18.192;2023-05-27T07:27:38;11.40;;;5.30;;
76795;SDS011;65745;50.278;18.192;2023-05-27T07:30:11;10.00;;;4.70;;
76795;SDS011;65745;50.278;18.192;2023-05-27T07:32:48;11.30;;;4.60;;
76795;SDS011;65745;50.278;18.192;2023-05-27T07:35:21;10.10;;;4.40;;
76795;SDS011;65745;50.278;18.192;2023-05-27T07:37:53;13.50;;;5.60;;
76795;SDS011;65745;50.278;18.192;2023-05-27T07:40:25;12.10;;;4.40;;
76795;SDS011;65745;50.278;18.192;2023-05-27T07:42:58;9.80;;;4.70;;
76795;SDS011;65745;50.278;18.192;2023-05-27T07:45:30;14.50;;;5.30;;
76795;SDS011;65745;50.278;18.192;2023-05-27T07:48:03;10.80;;;4.70;;
76795;SDS011;65745;50.278;18.192;2023-05-27T07:50:35;12.60;;;5.80;;
76795;SDS011;65745;50.278;18.192;2023-05-27T07:53:15;11.40;;;5.50;;
76795;SDS011;65745;50.278;18.192;2023-05-27T07:55:48;10.30;;;5.20;;
76795;SDS011;65745;50.278;18.192;2023-05-27T07:58:21;10.20;;;4.80;;
76795;SDS011;65745;50.278;18.192;2023-05-27T08:01:13;8.70;;;3.90;;
76795;SDS011;65745;50.278;18.192;2023-05-27T08:03:48;11.80;;;4.60;;
76795;SDS011;65745;50.278;18.192;2023-05-27T08:06:39;11.40;;;4.80;;
76795;SDS011;65745;50.278;18.192;2023-05-27T08:09:31;13.50;;;5.00;;
76795;SDS011;65745;50.278;18.192;2023-05-27T08:12:19;9.30;;;5.00;;
76795;SDS011;65745;50.278;18.192;2023-05-27T08:15:13;10.80;;;4.70;;
76795;SDS011;65745;50.278;18.192;2023-05-27T08:18:02;11.60;;;4.80;;
76795;SDS011;65745;50.278;18.192;2023-05-27T08:20:47;12.00;;;4.30;;
76795;SDS011;65745;50.278;18.192;2023-05-27T08:23:30;12.10;;;4.40;;
76795;SDS011;65745;50.278;18.192;2023-05-27T08:26:21;12.10;;;4.40;;
76795;SDS011;65745;50.278;18.192;2023-05-27T08:29:17;8.90;;;4.80;;
76795;SDS011;65745;50.278;18.192;2023-05-27T08:32:00;13.90;;;5.10;;
76795;SDS011;65745;50.278;18.192;2023-05-27T08:34:33;13.90;;;5.80;;
76795;SDS011;65745;50.278;18.192;2023-05-27T08:37:05;10.70;;;4.90;;
76795;SDS011;65745;50.278;18.192;2023-05-27T08:39:41;11.20;;;4.40;;
76795;SDS011;65745;50.278;18.192;2023-05-27T08:42:24;9.50;;;4.20;;
76795;SDS011;65745;50.278;18.192;2023-05-27T08:44:56;8.50;;;5.00;;
76795;SDS011;65745;50.278;18.192;2023-05-27T08:47:29;12.00;;;5.10;;
76795;SDS011;65745;50.278;18.192;2023-05-27T08:50:02;11.80;;;5.10;;
76795;SDS011;65745;50.278;18.192;2023-05-27T08:52:38;9.70;;;4.30;;
76795;SDS011;65745;50.278;18.192;2023-05-27T08:55:17;11.40;;;4.70;;
76795;SDS011;65745;50.278;18.192;2023-05-27T08:57:55;10.30;;;4.40;;
76795;SDS011;65745;50.278;18.192;2023-05-27T09:00:31;10.40;;;4.40;;
76795;SDS011;65745;50.278;18.192;2023-05-27T09:03:24;14.10;;;4.90;;
76795;SDS011;65745;50.278;18.192;2023-05-27T09:05:58;12.70;;;4.80;;
76795;SDS011;65745;50.278;18.192;2023-05-27T09:08:32;13.00;;;4.70;;
76795;SDS011;65745;50.278;18.192;2023-05-27T09:11:25;13.60;;;4.70;;
76795;SDS011;65745;50.278;18.192;2023-05-27T09:14:00;8.10;;;4.50;;
76795;SDS011;65745;50.278;18.192;2023-05-27T09:16:32;10.60;;;4.80;;
76795;SDS011;65745;50.278;18.192;2023-05-27T09:19:04;9.10;;;4.50;;
76795;SDS011;65745;50.278;18.192;2023-05-27T09:21:46;13.30;;;4.90;;
76795;SDS011;65745;50.278;18.192;2023-05-27T09:24:23;11.80;;;5.00;;
76795;SDS011;65745;50.278;18.192;2023-05-27T09:26:56;8.50;;;4.80;;
76795;SDS011;65745;50.278;18.192;2023-05-27T09:29:29;11.80;;;4.90;;
76795;SDS011;65745;50.278;18.192;2023-05-27T09:32:04;10.40;;;4.20;;
76795;SDS011;65745;50.278;18.192;2023-05-27T09:34:40;8.90;;;3.90;;
76795;SDS011;65745;50.278;18.192;2023-05-27T09:37:13;8.10;;;3.70;;
76795;SDS011;65745;50.278;18.192;2023-05-27T09:39:51;10.00;;;4.30;;
76795;SDS011;65745;50.278;18.192;2023-05-27T09:42:23;9.90;;;4.20;;
76795;SDS011;65745;50.278;18.192;2023-05-27T09:44:55;8.10;;;3.40;;
76795;SDS011;65745;50.278;18.192;2023-05-27T09:47:27;8.50;;;3.70;;
76795;SDS011;65745;50.278;18.192;2023-05-27T09:50:00;10.20;;;4.00;;
76795;SDS011;65745;50.278;18.192;2023-05-27T09:52:34;6.80;;;3.60;;
76795;SDS011;65745;50.278;18.192;2023-05-27T09:55:16;6.90;;;4.10;;
76795;SDS011;65745;50.278;18.192;2023-05-27T09:57:48;7.20;;;4.00;;
76795;SDS011;65745;50.278;18.192;2023-05-27T10:00:21;7.80;;;4.50;;
76795;SDS011;65745;50.278;18.192;2023-05-27T10:02:56;6.80;;;3.90;;
76795;SDS011;65745;50.278;18.192;2023-05-27T10:05:30;7.50;;;4.10;;
76795;SDS011;65745;50.278;18.192;2023-05-27T10:08:03;7.60;;;3.60;;
76795;SDS011;65745;50.278;18.192;2023-05-27T10:10:52;10.00;;;4.10;;
76795;SDS011;65745;50.278;18.192;2023-05-27T10:13:26;10.10;;;4.40;;
76795;SDS011;65745;50.278;18.192;2023-05-27T10:15:59;7.80;;;3.30;;
76795;SDS011;65745;50.278;18.192;2023-05-27T10:18:32;6.60;;;3.70;;
76795;SDS011;65745;50.278;18.192;2023-05-27T10:21:05;11.10;;;4.20;;
76795;SDS011;65745;50.278;18.192;2023-05-27T10:23:37;7.30;;;3.20;;
76795;SDS011;65745;50.278;18.192;2023-05-27T10:26:09;9.70;;;3.50;;
76795;SDS011;65745;50.278;18.192;2023-05-27T10:28:41;7.80;;;3.70;;
76795;SDS011;65745;50.278;18.192;2023-05-27T10:31:16;9.40;;;4.00;;
76795;SDS011;65745;50.278;18.192;2023-05-27T10:33:49;5.70;;;3.10;;
76795;SDS011;65745;50.278;18.192;2023-05-27T10:36:23;8.00;;;3.20;;
76795;SDS011;65745;50.278;18.192;2023-05-27T10:38:58;7.70;;;3.20;;
76795;SDS011;65745;50.278;18.192;2023-05-27T10:41:39;8.20;;;3.50;;
76795;SDS011;65745;50.278;18.192;2023-05-27T10:44:12;5.60;;;3.30;;
76795;SDS011;65745;50.278;18.192;2023-05-27T10:47:00;6.60;;;3.30;;
76795;SDS011;65745;50.278;18.192;2023-05-27T10:49:34;7.20;;;3.50;;
76795;SDS011;65745;50.278;18.192;2023-05-27T10:52:09;7.80;;;3.60;;
76795;SDS011;65745;50.278;18.192;2023-05-27T10:54:43;7.60;;;3.50;;
76795;SDS011;65745;50.278;18.192;2023-05-27T10:57:16;7.00;;;3.10;;
76795;SDS011;65745;50.278;18.192;2023-05-27T10:59:49;8.20;;;3.40;;
76795;SDS011;65745;50.278;18.192;2023-05-27T11:02:28;8.50;;;3.60;;
76795;SDS011;65745;50.278;18.192;2023-05-27T11:05:13;7.30;;;3.40;;
76795;SDS011;65745;50.278;18.192;2023-05-27T11:07:45;6.60;;;3.20;;
76795;SDS011;65745;50.278;18.192;2023-05-27T11:10:17;7.30;;;3.40;;
76795;SDS011;65745;50.278;18.192;2023-05-27T11:12:50;6.10;;;3.20;;
76795;SDS011;65745;50.278;18.192;2023-05-27T11:15:22;6.70;;;3.70;;
76795;SDS011;65745;50.278;18.192;2023-05-27T11:18:01;6.50;;;3.20;;
76795;SDS011;65745;50.278;18.192;2023-05-27T11:20:37;4.80;;;2.70;;
76795;SDS011;65745;50.278;18.192;2023-05-27T11:23:09;7.40;;;3.70;;
76795;SDS011;65745;50.278;18.192;2023-05-27T11:25:42;5.10;;;3.20;;
76795;SDS011;65745;50.278;18.192;2023-05-27T11:28:15;5.50;;;3.00;;
76795;SDS011;65745;50.278;18.192;2023-05-27T11:30:47;10.40;;;4.70;;
76795;SDS011;65745;50.278;18.192;2023-05-27T11:33:30;5.90;;;3.60;;
76795;SDS011;65745;50.278;18.192;2023-05-27T11:36:06;4.80;;;2.70;;
76795;SDS011;65745;50.278;18.192;2023-05-27T11:38:49;7.70;;;3.00;;
76795;SDS011;65745;50.278;18.192;2023-05-27T11:41:23;6.50;;;3.20;;
76795;SDS011;65745;50.278;18.192;2023-05-27T11:43:57;6.00;;;3.40;;
76795;SDS011;65745;50.278;18.192;2023-05-27T11:46:37;7.80;;;3.40;;
76795;SDS011;65745;50.278;18.192;2023-05-27T11:49:10;6.90;;;3.40;;
76795;SDS011;65745;50.278;18.192;2023-05-27T11:51:44;5.40;;;2.90;;
76795;SDS011;65745;50.278;18.192;2023-05-27T11:54:18;6.50;;;3.10;;
76795;SDS011;65745;50.278;18.192;2023-05-27T11:56:53;5.90;;;3.20;;
76795;SDS011;65745;50.278;18.192;2023-05-27T12:01:59;9.50;;;3.10;;
76795;SDS011;65745;50.278;18.192;2023-05-27T12:04:33;7.10;;;3.10;;
76795;SDS011;65745;50.278;18.192;2023-05-27T12:07:05;5.40;;;3.20;;
76795;SDS011;65745;50.278;18.192;2023-05-27T12:09:48;5.10;;;3.10;;
76795;SDS011;65745;50.278;18.192;2023-05-27T12:12:20;5.00;;;2.90;;
76795;SDS011;65745;50.278;18.192;2023-05-27T12:14:52;5.40;;;2.60;;
76795;SDS011;65745;50.278;18.192;2023-05-27T12:17:24;5.70;;;2.80;;
76795;SDS011;65745;50.278;18.192;2023-05-27T12:19:57;7.30;;;3.40;;
76795;SDS011;65745;50.278;18.192;2023-05-27T12:22:29;5.50;;;3.20;;
76795;SDS011;65745;50.278;18.192;2023-05-27T12:25:01;4.40;;;2.60;;
76795;SDS011;65745;50.278;18.192;2023-05-27T12:27:35;5.20;;;3.40;;
76795;SDS011;65745;50.278;18.192;2023-05-27T12:30:09;5.60;;;3.20;;
76795;SDS011;65745;50.278;18.192;2023-05-27T12:32:42;6.50;;;2.90;;
76795;SDS011;65745;50.278;18.192;2023-05-27T12:35:14;8.80;;;3.30;;
76795;SDS011;65745;50.278;18.192;2023-05-27T12:37:46;5.40;;;3.20;;
76795;SDS011;65745;50.278;18.192;2023-05-27T12:40:19;6.40;;;3.10;;
76795;SDS011;65745;50.278;18.192;2023-05-27T12:42:51;6.00;;;3.60;;
76795;SDS011;65745;50.278;18.192;2023-05-27T12:45:23;5.30;;;3.20;;
76795;SDS011;65745;50.278;18.192;2023-05-27T12:47:56;9.50;;;3.70;;
76795;SDS011;65745;50.278;18.192;2023-05-27T12:50:29;7.10;;;3.40;;
76795;SDS011;65745;50.278;18.192;2023-05-27T12:55:35;8.00;;;3.80;;
76795;SDS011;65745;50.278;18.192;2023-05-27T12:58:08;5.50;;;2.90;;
76795;SDS011;65745;50.278;18.192;2023-05-27T13:00:40;5.00;;;3.00;;
76795;SDS011;65745;50.278;18.192;2023-05-27T13:03:14;5.00;;;3.20;;
76795;SDS011;65745;50.278;18.192;2023-05-27T13:05:47;4.70;;;2.90;;
76795;SDS011;65745;50.278;18.192;2023-05-27T13:08:19;5.90;;;3.20;;
76795;SDS011;65745;50.278;18.192;2023-05-27T13:10:52;7.40;;;3.30;;
76795;SDS011;65745;50.278;18.192;2023-05-27T13:13:24;5.00;;;3.40;;
76795;SDS011;65745;50.278;18.192;2023-05-27T13:15:57;4.00;;;2.80;;
76795;SDS011;65745;50.278;18.192;2023-05-27T13:18:29;4.10;;;3.10;;
76795;SDS011;65745;50.278;18.192;2023-05-27T13:21:01;4.80;;;2.70;;
76795;SDS011;65745;50.278;18.192;2023-05-27T13:23:34;6.10;;;2.90;;
76795;SDS011;65745;50.278;18.192;2023-05-27T13:26:06;5.10;;;3.10;;
76795;SDS011;65745;50.278;18.192;2023-05-27T13:28:38;4.80;;;3.10;;
76795;SDS011;65745;50.278;18.192;2023-05-27T13:31:10;5.50;;;3.10;;
76795;SDS011;65745;50.278;18.192;2023-05-27T13:33:42;4.60;;;2.90;;
76795;SDS011;65745;50.278;18.192;2023-05-27T13:36:14;6.10;;;3.60;;
76795;SDS011;65745;50.278;18.192;2023-05-27T13:38:47;4.60;;;2.80;;
76795;SDS011;65745;50.278;18.192;2023-05-27T13:41:19;5.50;;;3.40;;
76795;SDS011;65745;50.278;18.192;2023-05-27T13:43:51;4.60;;;3.10;;
76795;SDS011;65745;50.278;18.192;2023-05-27T13:46:23;5.30;;;3.10;;
76795;SDS011;65745;50.278;18.192;2023-05-27T13:48:56;6.20;;;3.20;;
76795;SDS011;65745;50.278;18.192;2023-05-27T13:51:30;4.40;;;2.90;;
76795;SDS011;65745;50.278;18.192;2023-05-27T13:54:03;5.20;;;3.20;;
76795;SDS011;65745;50.278;18.192;2023-05-27T13:56:35;4.30;;;3.00;;
76795;SDS011;65745;50.278;18.192;2023-05-27T13:59:08;4.30;;;2.90;;
76795;SDS011;65745;50.278;18.192;2023-05-27T14:01:41;4.50;;;2.60;;
76795;SDS011;65745;50.278;18.192;2023-05-27T14:04:14;3.80;;;2.70;;
76795;SDS011;65745;50.278;18.192;2023-05-27T14:06:46;6.40;;;3.20;;
76795;SDS011;65745;50.278;18.192;2023-05-27T14:09:18;5.90;;;3.20;;
76795;SDS011;65745;50.278;18.192;2023-05-27T14:11:50;4.60;;;3.10;;
76795;SDS011;65745;50.278;18.192;2023-05-27T14:14:23;4.90;;;2.80;;
76795;SDS011;65745;50.278;18.192;2023-05-27T14:16:55;6.00;;;2.80;;
76795;SDS011;65745;50.278;18.192;2023-05-27T14:19:32;4.00;;;2.60;;
76795;SDS011;65745;50.278;18.192;2023-05-27T14:22:07;4.30;;;2.70;;
76795;SDS011;65745;50.278;18.192;2023-05-27T14:24:40;4.00;;;3.00;;
76795;SDS011;65745;50.278;18.192;2023-05-27T14:27:13;5.20;;;2.60;;
76795;SDS011;65745;50.278;18.192;2023-05-27T14:29:45;3.80;;;2.70;;
76795;SDS011;65745;50.278;18.192;2023-05-27T14:32:17;5.40;;;2.90;;
76795;SDS011;65745;50.278;18.192;2023-05-27T14:34:49;4.00;;;2.80;;
76795;SDS011;65745;50.278;18.192;2023-05-27T14:37:22;4.50;;;2.60;;
76795;SDS011;65745;50.278;18.192;2023-05-27T14:39:54;4.60;;;3.20;;
76795;SDS011;65745;50.278;18.192;2023-05-27T14:42:26;6.20;;;3.00;;
76795;SDS011;65745;50.278;18.192;2023-05-27T14:44:59;4.90;;;2.70;;
76795;SDS011;65745;50.278;18.192;2023-05-27T14:47:31;4.60;;;2.80;;
76795;SDS011;65745;50.278;18.192;2023-05-27T14:50:03;4.60;;;2.70;;
76795;SDS011;65745;50.278;18.192;2023-05-27T14:52:36;5.20;;;3.20;;
76795;SDS011;65745;50.278;18.192;2023-05-27T14:55:09;4.30;;;2.90;;
76795;SDS011;65745;50.278;18.192;2023-05-27T14:57:41;8.40;;;4.70;;
76795;SDS011;65745;50.278;18.192;2023-05-27T15:00:14;4.70;;;2.70;;
76795;SDS011;65745;50.278;18.192;2023-05-27T15:02:47;5.20;;;3.60;;
76795;SDS011;65745;50.278;18.192;2023-05-27T15:05:19;4.50;;;3.30;;
76795;SDS011;65745;50.278;18.192;2023-05-27T15:07:52;4.00;;;2.60;;
76795;SDS011;65745;50.278;18.192;2023-05-27T15:10:24;5.20;;;2.80;;
76795;SDS011;65745;50.278;18.192;2023-05-27T15:12:57;4.80;;;2.60;;
76795;SDS011;65745;50.278;18.192;2023-05-27T15:15:30;3.70;;;2.90;;
76795;SDS011;65745;50.278;18.192;2023-05-27T15:18:02;4.30;;;2.60;;
76795;SDS011;65745;50.278;18.192;2023-05-27T15:20:37;4.60;;;2.60;;